Terminal Aerodrome Forecast
Issued by NWS

Home | Current Version | Previous Version | Text Only | Print | Product List | Glossary On
Versions: 1 2 3 4 5 6 7 8 9 10 11 12 13 14 15 16 17 18 19 20 21 22 23 24 25 26 27 28 29 30 31 32 33 34 35 36 37 38 39 40 41
705
FTAK31 PAFA 091127
TAFASC
TAF
PASC 091127Z 0912/1012 06020KT 1 1/2SM BLSN BR OVC014
     FM091800 09016KT 1 1/2SM BLSN BR OVC009
     FM100400 08012KT 3SM BR SCT009 OVC015=

USA.gov is the U.S. government's official web portal to all federal, state and local government web resources and services.